EST,Max TemperatureF,Mean TemperatureF,Min TemperatureF,Max Dew PointF,MeanDew PointF,Min DewpointF,Max Humidity, Mean Humidity, Min Humidity, Max Sea Level PressureIn, Mean Sea Level PressureIn, Min Sea Level PressureIn, Max VisibilityMiles, Mean VisibilityMiles, Min VisibilityMiles, Max Wind SpeedMPH, Mean Wind SpeedMPH, Max Gust SpeedMPH,PrecipitationIn, CloudCover, Events, WindDirDegrees
2012-12-1,70,56,41,50,46,39,96,78,47,30.40,30.35,30.32,10,8,5,8,1,12,0.00,3,,87
2012-12-2,74,61,47,56,52,45,93,80,53,30.39,30.32,30.27,10,8,2,9,2,14,0.00,4,,170
2012-12-3,76,63,49,61,53,48,100,85,41,30.35,30.30,30.25,10,5,0,9,1,12,0.00,3,Fog,229
2012-12-4,74,61,48,59,53,47,100,88,57,30.36,30.28,30.24,10,4,0,12,2,14,0.00,2,Fog,227
2012-12-5,76,62,48,57,52,46,100,86,41,30.25,30.19,30.11,10,5,0,17,4,21,0.00,2,Fog,242
2012-12-6,65,58,50,54,48,39,93,73,48,30.22,30.18,30.14,10,9,2,15,7,20,0.00,7,,50
2012-12-7,61,55,49,50,45,37,77,69,61,30.15,30.07,30.01,10,10,10,13,5,15,0.00,8,,25
2012-12-8,70,60,50,54,51,48,96,84,53,30.10,30.05,30.02,10,5,0,8,2,10,0.00,6,Fog,266
2012-12-9,75,64,52,63,58,50,100,87,60,30.14,30.07,29.99,10,6,0,12,2,15,0.00,7,Fog,220
2012-12-10,74,67,59,61,58,56,100,85,53,29.99,29.89,29.77,10,6,0,17,5,22,0.00,4,Fog,209
2012-12-11,64,60,56,58,53,45,93,79,60,30.09,29.94,29.78,10,9,2,9,4,13,0.04,6,Rain,240
2012-12-12,57,51,44,46,43,38,92,80,66,30.28,30.18,30.09,10,9,5,16,8,23,0.29,8,Rain,39
2012-12-13,51,46,41,41,38,36,89,81,63,30.35,30.29,30.21,10,8,2,16,8,23,0.47,7,Rain,30
2012-12-14,61,48,35,39,35,33,92,72,36,30.40,30.30,30.24,10,10,6,10,2,12,0.00,0,,32
2012-12-15,59,48,37,48,41,35,92,75,55,30.25,30.18,30.11,10,10,10,8,1,9,0.00,5,,47
2012-12-16,69,60,51,60,54,48,93,88,68,30.10,30.03,29.89,10,6,0,9,2,13,T,7,Fog-Rain,203
2012-12-17,63,60,56,61,57,54,93,91,84,29.90,29.84,29.75,10,7,2,16,5,23,0.74,7,Rain,246
2012-12-18,65,53,40,57,47,31,93,73,31,30.01,29.83,29.76,10,10,10,23,9,35,0.00,4,,252
2012-12-19,70,53,35,42,37,32,92,64,31,30.12,30.07,30.01,10,10,9,15,3,20,0.00,0,,259
2012-12-20,74,56,37,63,50,32,93,78,49,30.11,29.86,29.65,10,8,2,28,9,39,0.30,4,Rain,209
2012-12-21,50,46,41,29,23,18,54,43,32,30.00,29.88,29.81,10,10,10,32,18,43,0.00,0,,275
2012-12-22,58,45,31,27,19,13,64,41,19,30.19,30.12,30.00,10,10,10,20,8,26,0.00,0,,266
2012-12-23,59,43,27,32,27,23,85,56,28,30.22,30.14,30.10,10,10,10,13,2,15,0.00,0,,234
2012-12-24,55,49,42,48,40,31,100,77,50,30.09,30.00,29.93,10,8,2,13,2,17,0.44,6,Rain,195
2012-12-25,53,51,49,52,49,46,96,91,83,30.09,30.00,29.93,10,5,1,14,4,20,0.70,8,Rain,49
2012-12-26,68,55,41,61,50,29,100,79,45,29.92,29.70,29.53,10,7,2,31,16,40,0.43,7,Rain,196
2012-12-27,55,46,36,34,31,29,85,64,41,30.07,29.97,29.84,10,10,6,20,7,24,0.00,0,,277
2012-12-28,52,43,33,42,35,30,96,73,54,30.16,30.07,29.94,10,9,5,8,3,12,0.00,2,,71
2012-12-29,56,49,41,46,41,28,93,82,54,30.09,29.84,29.75,10,7,2,25,12,36,0.96,7,Rain,322
2012-12-30,52,41,29,28,24,20,85,59,28,30.44,30.33,30.10,10,10,8,14,4,20,0.00,0,,327
2012-12-31,59,43,27,43,33,25,92,66,38,30.44,30.33,30.20,10,10,7,14,2,16,0.00,3,,214